createdAt,value
2022-09-12T00:00:34.745Z,0.70
2022-09-12T00:01:36.728Z,0.40
2022-09-12T00:02:38.751Z,0.50
2022-09-12T00:03:41.567Z,0.50
2022-09-12T00:04:43.255Z,0.57
2022-09-12T00:05:47.231Z,0.63
2022-09-12T00:06:49.018Z,0.60
2022-09-12T00:07:51.124Z,0.70
2022-09-12T00:08:57.962Z,0.77
2022-09-12T00:09:59.716Z,0.60
2022-09-12T00:11:05.513Z,0.52
2022-09-12T00:12:07.239Z,0.55
2022-09-12T00:13:09.950Z,0.75
2022-09-12T00:14:15.915Z,0.47
2022-09-12T00:15:17.978Z,0.90
2022-09-12T00:16:22.947Z,0.57
2022-09-12T00:17:24.716Z,0.80
2022-09-12T00:18:26.918Z,0.65
2022-09-12T00:19:29.539Z,0.70
2022-09-12T00:20:31.220Z,0.50
2022-09-12T00:21:34.922Z,0.77
2022-09-12T00:22:37.298Z,0.55
2022-09-12T00:23:39.120Z,0.70
2022-09-12T00:24:41.146Z,0.80
2022-09-12T00:25:48.270Z,0.60
2022-09-12T00:26:49.986Z,0.60
2022-09-12T00:27:51.777Z,0.60
2022-09-12T00:28:53.567Z,0.68
2022-09-12T00:29:55.339Z,0.60
2022-09-12T00:30:57.253Z,0.50
2022-09-12T00:31:58.993Z,0.50
2022-09-12T00:33:00.761Z,0.70
2022-09-12T00:34:02.746Z,0.80
2022-09-12T00:35:04.837Z,0.60
2022-09-12T00:36:10.119Z,0.80
2022-09-12T00:37:12.283Z,0.55
2022-09-12T00:38:15.639Z,0.57
2022-09-12T00:39:17.804Z,0.57
2022-09-12T00:40:19.484Z,0.80
2022-09-12T00:41:29.537Z,0.60
2022-09-12T00:42:31.327Z,0.65
2022-09-12T00:43:46.804Z,0.63
2022-09-12T00:44:51.857Z,0.43
2022-09-12T00:45:54.562Z,0.50
2022-09-12T00:47:19.371Z,0.70
2022-09-12T00:48:33.934Z,0.75
2022-09-12T00:49:42.714Z,0.80
2022-09-12T00:50:44.603Z,0.60
2022-09-12T00:51:55.343Z,0.60
2022-09-12T00:53:08.615Z,0.82
2022-09-12T00:54:16.486Z,0.60
2022-09-12T00:55:29.096Z,0.82
2022-09-12T00:56:31.464Z,0.70
2022-09-12T00:57:38.262Z,0.60
2022-09-12T00:58:58.647Z,0.50
2022-09-12T01:00:26.231Z,0.30
2022-09-12T01:01:32.221Z,0.70
2022-09-12T01:02:34.915Z,0.40
2022-09-12T01:03:36.635Z,0.40
2022-09-12T01:04:40.487Z,0.50
2022-09-12T01:05:47.444Z,0.50
2022-09-12T01:06:50.188Z,0.60
2022-09-12T01:07:53.170Z,0.73
2022-09-12T01:08:56.651Z,0.60
2022-09-12T01:09:58.439Z,0.60
2022-09-12T01:11:00.375Z,0.80
2022-09-12T01:12:02.996Z,0.45
2022-09-12T01:13:11.381Z,0.43
2022-09-12T01:14:15.031Z,0.68
2022-09-12T01:15:17.155Z,0.50
2022-09-12T01:16:19.108Z,0.47
2022-09-12T01:17:21.716Z,0.40
2022-09-12T01:18:57.140Z,0.60
2022-09-12T01:20:14.150Z,0.65
2022-09-12T01:21:47.961Z,0.40
2022-09-12T01:23:14.255Z,0.57
2022-09-12T01:24:37.657Z,0.65
2022-09-12T01:26:01.129Z,0.40
2022-09-12T01:27:35.378Z,0.45
2022-09-12T01:28:58.379Z,0.40
2022-09-12T01:30:24.775Z,0.40
2022-09-12T01:31:38.456Z,0.57
2022-09-12T01:33:11.265Z,0.52
2022-09-12T01:34:21.886Z,0.40
2022-09-12T01:35:38.459Z,0.50
2022-09-12T01:37:15.746Z,0.63
2022-09-12T01:38:37.103Z,0.60
2022-09-12T01:39:58.433Z,0.40
2022-09-12T01:41:17.223Z,0.40
2022-09-12T01:42:34.668Z,0.68
2022-09-12T01:43:54.924Z,0.40
2022-09-12T01:45:03.477Z,0.50
2022-09-12T01:46:21.385Z,0.55
2022-09-12T01:47:44.078Z,0.68
2022-09-12T01:49:08.077Z,0.50
2022-09-12T01:50:27.409Z,0.60
2022-09-12T01:51:47.031Z,0.57
2022-09-12T01:53:08.274Z,0.60
2022-09-12T01:54:17.458Z,0.40
2022-09-12T01:55:30.915Z,0.50
2022-09-12T01:56:36.105Z,0.40
2022-09-12T01:57:47.203Z,0.70
2022-09-12T01:59:22.019Z,0.55
2022-09-12T02:00:24.314Z,0.60
2022-09-12T02:01:33.959Z,0.40
2022-09-12T02:02:41.019Z,0.60
2022-09-12T02:04:11.596Z,0.43
2022-09-12T02:05:23.831Z,0.50
2022-09-12T02:06:37.374Z,0.50
2022-09-12T02:07:44.830Z,0.50
2022-09-12T02:08:54.782Z,0.50
2022-09-12T02:10:11.926Z,0.50
2022-09-12T02:11:14.001Z,0.60
2022-09-12T02:12:22.683Z,0.60
2022-09-12T02:13:38.249Z,0.50
2022-09-12T02:14:46.711Z,0.50
2022-09-12T02:15:58.486Z,0.60
2022-09-12T02:17:13.556Z,0.55
2022-09-12T02:18:18.610Z,0.43
2022-09-12T02:19:28.666Z,0.60
2022-09-12T02:20:49.187Z,0.70
2022-09-12T02:21:55.592Z,0.70
2022-09-12T02:22:58.285Z,0.55
2022-09-12T02:24:03.423Z,0.70
2022-09-12T02:25:08.219Z,0.60
2022-09-12T02:26:21.281Z,0.68
2022-09-12T02:27:34.682Z,0.60
2022-09-12T02:28:41.553Z,0.70
2022-09-12T02:29:44.957Z,0.55
2022-09-12T02:31:08.073Z,0.85
2022-09-12T02:32:16.990Z,0.70
2022-09-12T02:33:27.190Z,0.52
2022-09-12T02:34:53.506Z,0.60
2022-09-12T02:36:15.714Z,0.85
2022-09-12T02:37:17.403Z,0.68
2022-09-12T02:39:00.353Z,0.70
2022-09-12T02:40:02.491Z,0.70
2022-09-12T02:41:04.508Z,0.60
2022-09-12T02:42:06.431Z,0.50
2022-09-12T02:43:08.243Z,0.98
2022-09-12T02:44:10.082Z,0.73
2022-09-12T02:45:12.800Z,0.60
2022-09-12T02:46:22.146Z,0.50
2022-09-12T02:47:34.510Z,0.60
2022-09-12T02:48:41.643Z,0.80
2022-09-12T02:49:43.528Z,0.57
2022-09-12T02:50:46.412Z,0.70
2022-09-12T02:51:49.451Z,0.50
2022-09-12T02:52:53.956Z,0.60
2022-09-12T02:53:56.915Z,0.68
2022-09-12T02:54:59.619Z,0.60
2022-09-12T02:56:01.615Z,0.60
2022-09-12T02:57:03.483Z,0.80
2022-09-12T02:58:11.338Z,0.65
2022-09-12T02:59:18.394Z,0.70
2022-09-12T03:00:20.647Z,0.60
2022-09-12T03:01:53.821Z,0.68
2022-09-12T03:03:18.271Z,0.60
2022-09-12T03:04:38.817Z,0.60
2022-09-12T03:05:57.553Z,0.60
2022-09-12T03:07:05.128Z,0.65
2022-09-12T03:08:21.709Z,0.70
2022-09-12T03:09:45.086Z,0.40
2022-09-12T03:11:05.114Z,0.70
2022-09-12T03:12:29.990Z,0.80
2022-09-12T03:13:45.990Z,0.63
2022-09-12T03:15:06.249Z,0.60
2022-09-12T03:16:46.873Z,0.50
2022-09-12T03:18:00.587Z,0.50
2022-09-12T03:19:06.991Z,0.70
2022-09-12T03:20:24.895Z,0.47
2022-09-12T03:21:37.414Z,0.80
2022-09-12T03:22:54.479Z,0.50
2022-09-12T03:24:17.071Z,0.60
2022-09-12T03:25:25.062Z,0.50
2022-09-12T03:26:42.169Z,0.50
2022-09-12T03:27:50.091Z,0.52
2022-09-12T03:28:54.582Z,0.95
2022-09-12T03:29:57.735Z,0.40
2022-09-12T03:30:59.752Z,0.68
2022-09-12T03:32:01.623Z,0.47
2022-09-12T03:33:03.333Z,0.60
2022-09-12T03:34:05.834Z,0.70
2022-09-12T03:35:08.026Z,0.70
2022-09-12T03:36:24.086Z,0.70
2022-09-12T03:37:25.744Z,0.75
2022-09-12T03:38:27.432Z,0.90
2022-09-12T03:39:29.363Z,0.73
2022-09-12T03:40:31.082Z,0.47
2022-09-12T03:41:32.872Z,0.60
2022-09-12T03:42:34.587Z,0.75
2022-09-12T03:43:36.470Z,0.60
2022-09-12T03:44:38.154Z,0.60
2022-09-12T03:45:39.900Z,0.73
2022-09-12T03:46:41.703Z,0.63
2022-09-12T03:47:43.568Z,0.55
2022-09-12T03:48:45.419Z,0.60
2022-09-12T03:49:47.247Z,0.63
2022-09-12T03:50:48.986Z,0.60
2022-09-12T03:51:50.702Z,0.60
2022-09-12T03:52:52.551Z,0.50
2022-09-12T03:53:54.462Z,0.70
2022-09-12T03:54:56.179Z,0.65
2022-09-12T03:55:58.542Z,0.57
2022-09-12T03:57:00.378Z,0.63
2022-09-12T03:58:02.179Z,0.75
2022-09-12T03:59:07.443Z,0.47
2022-09-12T04:00:09.646Z,0.60
2022-09-12T04:01:19.847Z,0.60
2022-09-12T04:02:21.692Z,0.70
2022-09-12T04:03:23.449Z,0.65
2022-09-12T04:04:25.151Z,0.45
2022-09-12T04:05:27.083Z,0.60
2022-09-12T04:06:28.893Z,0.85
2022-09-12T04:07:30.686Z,1.00
2022-09-12T04:08:32.378Z,0.95
2022-09-12T04:09:34.251Z,0.95
2022-09-12T04:10:36.052Z,1.15
2022-09-12T04:11:37.817Z,1.67
2022-09-12T04:12:39.653Z,1.17
2022-09-12T04:13:43.360Z,1.00
2022-09-12T04:14:45.053Z,1.20
2022-09-12T04:15:56.951Z,1.00
2022-09-12T04:16:58.779Z,1.42
2022-09-12T04:18:05.090Z,0.80
2022-09-12T04:19:07.719Z,1.02
2022-09-12T04:20:09.631Z,1.00
2022-09-12T04:21:15.820Z,1.20
2022-09-12T04:22:17.626Z,1.23
2022-09-12T04:23:19.837Z,0.90
2022-09-12T04:24:21.662Z,1.20
2022-09-12T04:25:24.160Z,1.00
2022-09-12T04:26:25.926Z,0.82
2022-09-12T04:27:28.287Z,0.90
2022-09-12T04:28:30.541Z,1.30
2022-09-12T04:29:32.276Z,1.08
2022-09-12T04:30:34.641Z,0.90
2022-09-12T04:31:36.386Z,0.85
2022-09-12T04:32:38.106Z,1.20
2022-09-12T04:33:39.851Z,1.00
2022-09-12T04:34:41.852Z,0.90
2022-09-12T04:35:43.747Z,1.00
2022-09-12T04:36:45.531Z,1.00
2022-09-12T04:37:47.238Z,0.80
2022-09-12T04:38:49.740Z,0.98
2022-09-12T04:39:51.861Z,1.17
2022-09-12T04:40:53.728Z,1.17
2022-09-12T04:41:55.477Z,1.00
2022-09-12T04:42:57.504Z,1.33
2022-09-12T04:44:02.506Z,1.10
2022-09-12T04:45:06.337Z,1.00
2022-09-12T04:46:10.057Z,0.88
2022-09-12T04:47:11.777Z,0.90
2022-09-12T04:48:13.607Z,1.30
2022-09-12T04:49:19.466Z,1.13
2022-09-12T04:50:21.300Z,1.00
2022-09-12T04:51:35.932Z,0.90
2022-09-12T04:52:37.606Z,1.10
2022-09-12T04:53:39.990Z,0.80
2022-09-12T04:54:41.756Z,0.77
2022-09-12T04:55:43.519Z,0.75
2022-09-12T04:56:47.604Z,0.90
2022-09-12T04:57:49.285Z,0.82
2022-09-12T04:58:51.266Z,0.88
2022-09-12T04:59:52.924Z,0.90
2022-09-12T05:00:54.661Z,0.77
2022-09-12T05:01:56.415Z,0.82
2022-09-12T05:02:58.230Z,1.02
2022-09-12T05:04:00.163Z,0.80
2022-09-12T05:05:01.895Z,0.80
2022-09-12T05:06:04.172Z,0.82
2022-09-12T05:07:06.052Z,0.80
2022-09-12T05:08:08.534Z,0.80
2022-09-12T05:09:14.475Z,0.65
2022-09-12T05:10:16.582Z,0.85
2022-09-12T05:11:25.441Z,0.55
2022-09-12T05:12:31.214Z,0.70
2022-09-12T05:13:33.875Z,0.88
2022-09-12T05:14:35.881Z,0.60
2022-09-12T05:15:37.797Z,0.80
2022-09-12T05:16:41.139Z,1.02
2022-09-12T05:17:43.026Z,0.80
2022-09-12T05:18:46.814Z,0.68
2022-09-12T05:19:48.958Z,0.70
2022-09-12T05:20:50.716Z,0.63
2022-09-12T05:21:52.524Z,0.82
2022-09-12T05:22:55.931Z,0.98
2022-09-12T05:24:00.231Z,0.60
2022-09-12T05:25:01.974Z,0.80
2022-09-12T05:26:06.163Z,0.80
2022-09-12T05:27:07.839Z,0.60
2022-09-12T05:28:09.537Z,0.60
2022-09-12T05:29:11.641Z,0.80
2022-09-12T05:30:13.498Z,0.75
2022-09-12T05:31:20.838Z,0.80
2022-09-12T05:32:22.541Z,0.77
2022-09-12T05:33:25.189Z,0.80
2022-09-12T05:34:28.013Z,0.80
2022-09-12T05:35:29.769Z,0.68
2022-09-12T05:36:31.978Z,0.77
2022-09-12T05:37:33.723Z,0.88
2022-09-12T05:38:35.713Z,0.60
2022-09-12T05:39:37.433Z,0.80
2022-09-12T05:40:39.216Z,0.70
2022-09-12T05:41:40.962Z,0.80
2022-09-12T05:42:42.677Z,0.73
2022-09-12T05:43:45.379Z,0.82
2022-09-12T05:44:47.133Z,0.80
2022-09-12T05:45:48.811Z,0.75
2022-09-12T05:46:51.465Z,1.25
2022-09-12T05:47:56.922Z,0.60
2022-09-12T05:49:08.936Z,0.90
2022-09-12T05:50:11.327Z,0.82
2022-09-12T05:51:19.159Z,0.70
2022-09-12T05:52:20.979Z,0.60
2022-09-12T05:53:22.808Z,0.60
2022-09-12T05:54:28.302Z,0.68
2022-09-12T05:55:33.250Z,1.17
2022-09-12T05:56:39.468Z,1.05
2022-09-12T05:57:46.156Z,0.70
2022-09-12T05:58:54.918Z,1.08
2022-09-12T05:59:56.585Z,0.70
2022-09-12T06:01:08.108Z,0.73
2022-09-12T06:02:11.345Z,0.80
2022-09-12T06:03:13.043Z,0.50
2022-09-12T06:04:15.254Z,0.90
2022-09-12T06:05:17.967Z,0.80
2022-09-12T06:06:21.714Z,0.75
2022-09-12T06:07:23.495Z,0.90
2022-09-12T06:08:25.327Z,0.70
2022-09-12T06:09:28.194Z,0.50
2022-09-12T06:10:29.972Z,0.70
2022-09-12T06:11:34.175Z,0.68
2022-09-12T06:12:35.859Z,0.73
2022-09-12T06:13:40.210Z,0.90
2022-09-12T06:14:41.959Z,0.90
2022-09-12T06:15:44.278Z,0.65
2022-09-12T06:16:47.417Z,0.60
2022-09-12T06:17:51.417Z,0.57
2022-09-12T06:18:55.533Z,0.63
2022-09-12T06:19:57.264Z,0.85
2022-09-12T06:21:06.541Z,0.77
2022-09-12T06:22:08.275Z,0.60
2022-09-12T06:23:10.112Z,0.63
2022-09-12T06:24:12.435Z,0.57
2022-09-12T06:25:14.536Z,0.80
2022-09-12T06:26:18.466Z,0.70
2022-09-12T06:27:20.123Z,0.70
2022-09-12T06:28:21.862Z,0.95
2022-09-12T06:29:23.719Z,0.70
2022-09-12T06:30:25.677Z,0.80
2022-09-12T06:31:33.844Z,0.90
2022-09-12T06:32:35.800Z,0.70
2022-09-12T06:33:40.079Z,0.80
2022-09-12T06:34:41.979Z,0.90
2022-09-12T06:35:43.908Z,0.90
2022-09-12T06:36:47.962Z,1.13
2022-09-12T06:37:49.638Z,0.70
2022-09-12T06:38:57.215Z,0.98
2022-09-12T06:39:58.957Z,1.10
2022-09-12T06:41:01.631Z,1.27
2022-09-12T06:42:03.911Z,0.88
2022-09-12T06:43:09.050Z,1.27
2022-09-12T06:44:19.690Z,1.00
2022-09-12T06:45:22.818Z,0.90
2022-09-12T06:46:25.600Z,0.93
2022-09-12T06:47:27.271Z,0.90
2022-09-12T06:48:29.678Z,1.00
2022-09-12T06:49:31.799Z,0.90
2022-09-12T06:50:33.599Z,0.82
2022-09-12T06:51:38.147Z,1.02
2022-09-12T06:52:39.979Z,0.90
2022-09-12T06:53:42.664Z,0.90
2022-09-12T06:54:44.427Z,0.80
2022-09-12T06:55:46.171Z,1.10
2022-09-12T06:56:47.931Z,1.05
2022-09-12T06:57:49.590Z,0.95
2022-09-12T06:58:52.569Z,0.90
2022-09-12T06:59:54.352Z,1.00
2022-09-12T07:01:25.751Z,0.60
2022-09-12T07:02:27.607Z,0.82
2022-09-12T07:03:29.986Z,0.95
2022-09-12T07:04:33.770Z,1.23
2022-09-12T07:05:35.560Z,1.00
2022-09-12T07:06:42.943Z,0.98
2022-09-12T07:07:45.060Z,1.05
2022-09-12T07:08:47.720Z,0.68
2022-09-12T07:09:49.547Z,0.70
2022-09-12T07:10:51.443Z,0.70
2022-09-12T07:11:53.157Z,0.75
2022-09-12T07:12:54.986Z,0.88
2022-09-12T07:13:58.303Z,0.80
2022-09-12T07:15:00.121Z,0.98
2022-09-12T07:16:03.075Z,1.05
2022-09-12T07:17:05.068Z,0.60
2022-09-12T07:18:06.785Z,0.93
2022-09-12T07:19:09.741Z,0.77
2022-09-12T07:20:11.846Z,0.60
2022-09-12T07:21:15.323Z,0.80
2022-09-12T07:22:17.077Z,0.80
2022-09-12T07:23:19.166Z,0.73
2022-09-12T07:24:20.834Z,0.70
2022-09-12T07:25:22.558Z,0.80
2022-09-12T07:26:26.783Z,0.60
2022-09-12T07:27:28.555Z,0.80
2022-09-12T07:28:33.414Z,0.73
2022-09-12T07:29:37.754Z,1.05
2022-09-12T07:30:39.849Z,0.80
2022-09-12T07:31:41.870Z,0.70
2022-09-12T07:32:43.612Z,0.63
2022-09-12T07:33:45.384Z,0.70
2022-09-12T07:34:47.491Z,0.75
2022-09-12T07:35:49.787Z,0.65
2022-09-12T07:36:51.504Z,0.60
2022-09-12T07:37:53.259Z,1.17
2022-09-12T07:38:57.652Z,0.50
2022-09-12T07:39:59.959Z,0.90
2022-09-12T07:41:02.112Z,0.63
2022-09-12T07:42:04.047Z,0.73
2022-09-12T07:43:06.111Z,0.55
2022-09-12T07:44:07.889Z,0.60
2022-09-12T07:45:10.385Z,0.60
2022-09-12T07:46:12.623Z,0.70
2022-09-12T07:47:14.386Z,0.80
2022-09-12T07:48:16.428Z,0.77
2022-09-12T07:49:18.180Z,1.17
2022-09-12T07:50:20.087Z,0.90
2022-09-12T07:51:23.419Z,0.90
2022-09-12T07:52:25.183Z,0.90
2022-09-12T07:53:38.131Z,0.90
2022-09-12T07:54:39.930Z,0.80
2022-09-12T07:55:41.789Z,0.70
2022-09-12T07:56:43.632Z,0.77
2022-09-12T07:57:45.359Z,0.60
2022-09-12T07:58:47.475Z,0.77
2022-09-12T07:59:52.981Z,0.88
2022-09-12T08:00:55.077Z,0.95
2022-09-12T08:01:56.822Z,0.60
2022-09-12T08:02:58.622Z,1.00
2022-09-12T08:04:00.791Z,0.80
2022-09-12T08:05:02.619Z,0.75
2022-09-12T08:06:09.628Z,0.93
2022-09-12T08:07:12.120Z,0.70
2022-09-12T08:08:13.920Z,0.70
2022-09-12T08:09:17.499Z,0.77
2022-09-12T08:10:19.226Z,0.70
2022-09-12T08:11:22.440Z,0.90
2022-09-12T08:12:24.138Z,0.90
2022-09-12T08:13:27.714Z,0.82
2022-09-12T08:14:29.920Z,1.00
2022-09-12T08:15:31.697Z,0.55
2022-09-12T08:16:35.718Z,0.65
2022-09-12T08:17:37.729Z,0.80
2022-09-12T08:18:39.782Z,1.20
2022-09-12T08:19:41.462Z,0.80
2022-09-12T08:20:43.334Z,0.80
2022-09-12T08:21:45.136Z,0.95
2022-09-12T08:22:46.879Z,0.60
2022-09-12T08:23:56.379Z,1.02
2022-09-12T08:24:58.751Z,0.93
2022-09-12T08:26:06.135Z,0.80
2022-09-12T08:27:08.379Z,1.25
2022-09-12T08:28:10.082Z,1.08
2022-09-12T08:29:12.067Z,1.08
2022-09-12T08:30:14.123Z,1.33
2022-09-12T08:31:18.440Z,0.80
2022-09-12T08:32:20.211Z,0.90
2022-09-12T08:33:22.540Z,1.00
2022-09-12T08:34:25.007Z,0.90
2022-09-12T08:35:26.657Z,1.00
2022-09-12T08:36:29.705Z,0.90
2022-09-12T08:37:31.874Z,1.17
2022-09-12T08:38:38.282Z,0.77
2022-09-12T08:39:39.994Z,1.35
2022-09-12T08:40:55.344Z,1.13
2022-09-12T08:42:05.719Z,1.20
2022-09-12T08:43:20.586Z,1.30
2022-09-12T08:44:40.991Z,1.40
2022-09-12T08:46:08.791Z,1.13
2022-09-12T08:47:34.598Z,1.05
2022-09-12T08:48:37.039Z,1.30
2022-09-12T08:49:58.259Z,1.27
2022-09-12T08:51:01.312Z,1.20
2022-09-12T08:52:11.451Z,0.90
2022-09-12T08:53:21.460Z,0.95
2022-09-12T08:54:31.027Z,1.13
2022-09-12T08:55:36.662Z,1.60
2022-09-12T08:56:39.336Z,1.45
2022-09-12T08:57:41.077Z,1.40
2022-09-12T08:58:46.035Z,1.00
2022-09-12T08:59:48.478Z,1.17
2022-09-12T09:01:14.705Z,1.25
2022-09-12T09:02:16.447Z,1.50
2022-09-12T09:03:45.125Z,1.35
2022-09-12T09:05:03.280Z,1.20
2022-09-12T09:06:10.563Z,1.40
2022-09-12T09:07:30.757Z,0.90
2022-09-12T09:08:52.216Z,1.30
2022-09-12T09:10:09.262Z,1.10
2022-09-12T09:11:14.106Z,1.45
2022-09-12T09:12:33.675Z,1.63
2022-09-12T09:14:06.111Z,1.08
2022-09-12T09:15:22.206Z,1.33
2022-09-12T09:16:53.977Z,1.45
2022-09-12T09:18:01.889Z,1.30
2022-09-12T09:19:15.412Z,1.45
2022-09-12T09:20:29.805Z,1.40
2022-09-12T09:21:40.471Z,1.05
2022-09-12T09:22:53.722Z,1.52
2022-09-12T09:24:06.566Z,1.63
2022-09-12T09:25:16.145Z,1.42
2022-09-12T09:26:36.187Z,1.45
2022-09-12T09:27:57.730Z,1.35
2022-09-12T09:29:26.339Z,1.17
2022-09-12T09:30:28.819Z,1.42
2022-09-12T09:31:39.387Z,1.42
2022-09-12T09:32:42.185Z,1.20
2022-09-12T09:33:46.458Z,1.40
2022-09-12T09:34:48.382Z,1.27
2022-09-12T09:36:08.623Z,1.45
2022-09-12T09:37:54.556Z,1.75
2022-09-12T09:39:17.546Z,1.25
2022-09-12T09:40:36.299Z,0.93
2022-09-12T09:41:56.712Z,1.30
2022-09-12T09:43:16.783Z,1.25
2022-09-12T09:44:18.917Z,0.90
2022-09-12T09:45:24.444Z,1.48
2022-09-12T09:46:27.465Z,1.25
2022-09-12T09:47:29.294Z,1.33
2022-09-12T09:48:35.133Z,1.52
2022-09-12T09:49:37.559Z,1.08
2022-09-12T09:50:39.387Z,1.40
2022-09-12T09:51:42.876Z,1.58
2022-09-12T09:52:44.630Z,1.45
2022-09-12T09:53:53.711Z,1.30
2022-09-12T09:54:58.673Z,1.10
2022-09-12T09:56:03.594Z,1.48
2022-09-12T09:57:25.792Z,0.93
2022-09-12T09:58:31.197Z,1.20
2022-09-12T09:59:34.105Z,1.00
2022-09-12T10:00:37.623Z,0.93
2022-09-12T10:02:14.050Z,1.23
2022-09-12T10:03:29.955Z,1.00
2022-09-12T10:04:40.589Z,1.13
2022-09-12T10:05:49.551Z,1.00
2022-09-12T10:06:54.584Z,1.10
2022-09-12T10:07:56.468Z,1.20
2022-09-12T10:09:14.847Z,1.20
2022-09-12T10:10:19.341Z,1.00
2022-09-12T10:11:23.283Z,1.00
2022-09-12T10:12:28.742Z,1.13
2022-09-12T10:13:42.438Z,0.90
2022-09-12T10:14:44.130Z,1.00
2022-09-12T10:16:07.757Z,1.17
2022-09-12T10:17:34.233Z,0.70
2022-09-12T10:18:40.706Z,0.98
2022-09-12T10:19:42.397Z,1.10
2022-09-12T10:20:45.434Z,1.00
2022-09-12T10:21:55.939Z,0.90
2022-09-12T10:23:18.157Z,1.15
2022-09-12T10:24:30.974Z,1.13
2022-09-12T10:25:32.952Z,1.10
2022-09-12T10:26:39.551Z,1.17
2022-09-12T10:27:42.302Z,0.82
2022-09-12T10:28:50.799Z,1.08
2022-09-12T10:30:25.222Z,0.85
2022-09-12T10:31:33.814Z,1.17
2022-09-12T10:32:42.348Z,1.05
2022-09-12T10:33:53.278Z,1.20
2022-09-12T10:35:02.269Z,1.27
2022-09-12T10:36:04.287Z,1.35
2022-09-12T10:37:09.019Z,1.27
2022-09-12T10:38:21.665Z,1.10
2022-09-12T10:39:24.044Z,1.27
2022-09-12T10:40:38.771Z,1.20
2022-09-12T10:41:41.519Z,1.10
2022-09-12T10:42:53.888Z,1.10
2022-09-12T10:44:07.105Z,1.10
2022-09-12T10:45:32.228Z,1.10
2022-09-12T10:46:33.915Z,1.10
2022-09-12T10:47:38.094Z,1.05
2022-09-12T10:48:39.843Z,1.30
2022-09-12T10:49:41.686Z,1.13
2022-09-12T10:50:43.639Z,1.20
2022-09-12T10:51:45.507Z,1.13
2022-09-12T10:52:47.236Z,0.98
2022-09-12T10:53:49.187Z,1.20
2022-09-12T10:54:52.528Z,0.93
2022-09-12T10:56:12.935Z,1.08
2022-09-12T10:57:40.253Z,1.10
2022-09-12T10:59:03.514Z,0.90
2022-09-12T11:00:27.646Z,0.82
2022-09-12T11:01:32.522Z,1.00
2022-09-12T11:02:40.365Z,1.33
2022-09-12T11:04:09.987Z,0.77
2022-09-12T11:05:32.232Z,1.20
2022-09-12T11:06:52.110Z,0.80
2022-09-12T11:08:09.795Z,1.50
2022-09-12T11:09:45.203Z,1.38
2022-09-12T11:10:57.146Z,1.08
2022-09-12T11:12:04.971Z,1.20
2022-09-12T11:13:29.174Z,0.93
2022-09-12T11:14:44.967Z,1.00
2022-09-12T11:16:07.135Z,1.00
2022-09-12T11:17:12.798Z,1.02
2022-09-12T11:18:27.202Z,1.00
2022-09-12T11:20:05.574Z,0.98
2022-09-12T11:21:25.427Z,1.17
2022-09-12T11:22:54.536Z,0.70
2022-09-12T11:24:32.090Z,0.90
2022-09-12T11:25:56.815Z,0.90
2022-09-12T11:27:23.182Z,0.90
2022-09-12T11:28:52.918Z,0.80
2022-09-12T11:29:59.702Z,0.90
2022-09-12T11:31:19.639Z,1.00
2022-09-12T11:32:33.868Z,0.90
2022-09-12T11:33:46.981Z,0.85
2022-09-12T11:35:00.722Z,0.90
2022-09-12T11:36:09.264Z,0.80
2022-09-12T11:37:37.149Z,0.90
2022-09-12T11:38:49.736Z,1.02
2022-09-12T11:39:55.627Z,0.73
2022-09-12T11:41:20.372Z,0.75
2022-09-12T11:42:30.231Z,0.70
2022-09-12T11:43:34.664Z,0.80
2022-09-12T11:44:46.175Z,0.73
2022-09-12T11:45:49.214Z,0.70
2022-09-12T11:46:52.064Z,0.70
2022-09-12T11:47:59.949Z,1.00
2022-09-12T11:49:25.022Z,0.80
2022-09-12T11:50:29.942Z,0.80
2022-09-12T11:52:13.259Z,0.68
2022-09-12T11:53:24.872Z,1.17
2022-09-12T11:54:54.075Z,0.80
2022-09-12T11:56:04.521Z,0.70
2022-09-12T11:57:12.479Z,0.60
2022-09-12T11:58:16.826Z,0.60
2022-09-12T11:59:47.139Z,0.80
2022-09-12T12:00:53.306Z,0.63
2022-09-12T12:02:00.184Z,0.70
2022-09-12T12:03:14.607Z,0.70
2022-09-12T12:04:20.714Z,0.70
2022-09-12T12:05:42.327Z,0.70
2022-09-12T12:06:56.602Z,0.57
2022-09-12T12:08:01.879Z,0.60
2022-09-12T12:09:05.305Z,0.93
2022-09-12T12:10:09.335Z,0.60
2022-09-12T12:11:14.116Z,0.50
2022-09-12T12:12:21.283Z,0.95
2022-09-12T12:13:28.169Z,0.80
2022-09-12T12:14:42.707Z,0.60
2022-09-12T12:15:51.240Z,0.50
2022-09-12T12:16:53.252Z,0.90
2022-09-12T12:18:08.756Z,0.60
2022-09-12T12:19:16.651Z,0.50
2022-09-12T12:20:18.651Z,0.52
2022-09-12T12:21:26.094Z,0.60
2022-09-12T12:22:28.265Z,0.80
2022-09-12T12:23:33.714Z,0.57
2022-09-12T12:24:47.624Z,0.50
2022-09-12T12:26:00.674Z,0.40
2022-09-12T12:27:05.310Z,0.50
2022-09-12T12:28:07.135Z,0.50
2022-09-12T12:29:13.596Z,0.60
2022-09-12T12:30:30.387Z,0.63
2022-09-12T12:31:32.251Z,0.50
2022-09-12T12:32:34.163Z,0.50
2022-09-12T12:33:38.799Z,0.57
2022-09-12T12:34:42.372Z,0.60
2022-09-12T12:36:02.737Z,0.63
2022-09-12T12:37:19.645Z,0.52
2022-09-12T12:38:43.175Z,0.50
2022-09-12T12:39:51.517Z,0.63
2022-09-12T12:40:54.129Z,0.50
2022-09-12T12:41:55.818Z,0.40
2022-09-12T12:43:00.957Z,0.60
2022-09-12T12:44:41.334Z,0.50
2022-09-12T12:45:48.910Z,0.70
2022-09-12T12:47:15.834Z,0.63
2022-09-12T12:48:19.033Z,0.40
2022-09-12T12:49:27.878Z,0.57
2022-09-12T12:50:31.206Z,0.50
2022-09-12T12:51:49.451Z,0.50
2022-09-12T12:53:01.460Z,0.35
2022-09-12T12:54:12.375Z,0.45
2022-09-12T12:55:20.766Z,0.52
2022-09-12T12:56:42.172Z,0.43
2022-09-12T12:57:52.278Z,0.70
2022-09-12T12:59:13.000Z,0.50
2022-09-12T13:00:20.495Z,0.60
2022-09-12T13:01:23.613Z,0.60
2022-09-12T13:02:33.949Z,0.60
2022-09-12T13:03:37.295Z,0.70
2022-09-12T13:04:45.615Z,0.50
2022-09-12T13:05:53.251Z,0.68
2022-09-12T13:07:26.616Z,0.60
2022-09-12T13:08:35.598Z,0.50
2022-09-12T13:09:50.743Z,0.50
2022-09-12T13:10:58.067Z,0.38
2022-09-12T13:12:09.671Z,0.60
2022-09-12T13:13:29.039Z,0.50
2022-09-12T13:14:42.986Z,0.45
2022-09-12T13:15:51.435Z,0.70
2022-09-12T13:17:00.495Z,0.65
2022-09-12T13:18:05.948Z,0.40
2022-09-12T13:19:19.491Z,0.50
2022-09-12T13:20:35.836Z,0.50
2022-09-12T13:21:38.378Z,0.40
2022-09-12T13:22:43.354Z,0.60
2022-09-12T13:23:59.659Z,0.50
2022-09-12T13:25:01.431Z,0.50
2022-09-12T13:26:04.770Z,0.70
2022-09-12T13:27:17.939Z,0.75
2022-09-12T13:28:19.680Z,0.60
2022-09-12T13:29:23.654Z,0.60
2022-09-12T13:30:26.194Z,0.47
2022-09-12T13:31:31.191Z,0.50
2022-09-12T13:32:33.459Z,0.60
2022-09-12T13:33:46.954Z,0.70
2022-09-12T13:35:42.120Z,0.70
2022-09-12T13:37:21.063Z,0.60
2022-09-12T13:38:43.661Z,0.70
2022-09-12T13:39:55.632Z,0.60
2022-09-12T13:41:38.569Z,0.60
2022-09-12T13:42:42.944Z,0.40
2022-09-12T13:43:49.203Z,0.70
2022-09-12T13:45:05.926Z,0.80
2022-09-12T13:46:10.142Z,0.70
2022-09-12T13:47:35.916Z,0.70
2022-09-12T13:48:39.611Z,0.90
2022-09-12T13:49:42.319Z,0.60
2022-09-12T13:50:53.032Z,0.85
2022-09-12T13:52:32.587Z,0.80
2022-09-12T13:53:56.286Z,0.80
2022-09-12T13:55:00.448Z,0.70
2022-09-12T13:56:03.877Z,0.70
2022-09-12T13:57:06.174Z,1.02
2022-09-12T13:58:17.191Z,0.60
2022-09-12T13:59:19.008Z,0.90
2022-09-12T14:00:20.747Z,0.88
2022-09-12T14:01:37.978Z,0.80
2022-09-12T14:02:40.790Z,0.90
2022-09-12T14:04:12.152Z,1.05
2022-09-12T14:05:21.344Z,0.95
2022-09-12T14:06:27.644Z,0.80
2022-09-12T14:07:29.440Z,0.82
2022-09-12T14:08:31.947Z,0.80
2022-09-12T14:09:39.850Z,1.00
2022-09-12T14:10:50.271Z,0.85
2022-09-12T14:11:53.123Z,0.70
2022-09-12T14:12:57.367Z,1.00
2022-09-12T14:14:02.547Z,0.90
2022-09-12T14:15:04.806Z,0.90
2022-09-12T14:16:10.191Z,0.88
2022-09-12T14:17:18.933Z,0.82
2022-09-12T14:18:29.274Z,0.85
2022-09-12T14:19:34.613Z,1.10
2022-09-12T14:20:38.680Z,0.90
2022-09-12T14:21:40.571Z,0.90
2022-09-12T14:22:42.829Z,1.10
2022-09-12T14:23:48.206Z,0.80
2022-09-12T14:24:51.781Z,0.80
2022-09-12T14:25:55.738Z,0.88
2022-09-12T14:26:57.595Z,0.90
2022-09-12T14:27:59.351Z,0.77
2022-09-12T14:29:04.994Z,0.85
2022-09-12T14:30:20.821Z,1.20
2022-09-12T14:31:28.666Z,0.80
2022-09-12T14:32:30.491Z,0.90
2022-09-12T14:33:51.809Z,1.30
2022-09-12T14:35:11.940Z,1.20
2022-09-12T14:36:22.777Z,1.35
2022-09-12T14:37:25.153Z,0.90
2022-09-12T14:38:37.023Z,1.15
2022-09-12T14:39:44.822Z,1.00
2022-09-12T14:40:49.503Z,0.93
2022-09-12T14:42:01.146Z,1.10
2022-09-12T14:43:03.204Z,1.55
2022-09-12T14:44:16.656Z,1.00
2022-09-12T14:45:31.414Z,0.90
2022-09-12T14:46:35.794Z,0.90
2022-09-12T14:47:41.955Z,1.00
2022-09-12T14:48:50.194Z,0.98
2022-09-12T14:49:52.179Z,0.98
2022-09-12T14:50:54.432Z,1.30
2022-09-12T14:52:02.626Z,0.90
2022-09-12T14:53:06.282Z,1.10
2022-09-12T14:54:27.997Z,1.20
2022-09-12T14:55:31.414Z,1.20
2022-09-12T14:56:42.603Z,1.00
2022-09-12T14:57:45.336Z,0.95
2022-09-12T14:58:47.429Z,1.02
2022-09-12T14:59:49.522Z,1.00
2022-09-12T15:01:06.566Z,1.13
2022-09-12T15:02:14.452Z,1.17
2022-09-12T15:03:28.359Z,1.20
2022-09-12T15:04:39.192Z,1.13
2022-09-12T15:05:49.841Z,1.10
2022-09-12T15:06:51.542Z,1.20